Time;durP1;ratioP1;P1;durP2;ratioP2;P2;SDS_P1;SDS_P2;PMS_P1;PMS_P2;Temp;Humidity;BMP_temperature;BMP_pressure;BME280_temperature;BME280_humidity;BME280_pressure;Samples;Min_cycle;Max_cycle;Signal;HPM_P1;HPM_P2
2022/08/09 00:00:57;;;;;;;7.90;5.30;;;14.00;99.90;;;;;;5053082;28;20426;-65
2022/08/09 00:03:22;;;;;;;10.13;5.72;;;14.10;99.90;;;;;;5050495;28;20143;-65
2022/08/09 00:05:48;;;;;;;8.15;5.47;;;14.00;99.90;;;;;;5051569;28;20040;-65
2022/08/09 00:08:13;;;;;;;9.45;5.22;;;14.00;99.90;;;;;;5061258;28;20032;-65
2022/08/09 00:10:40;;;;;;;6.38;4.78;;;14.00;99.90;;;;;;5050167;28;20068;-65
2022/08/09 00:13:07;;;;;;;6.20;5.00;;;14.00;99.90;;;;;;5050336;28;20045;-65
2022/08/09 00:15:32;;;;;;;8.02;5.30;;;13.90;99.90;;;;;;5041080;28;20479;-65
2022/08/09 00:17:58;;;;;;;8.07;5.25;;;13.90;99.90;;;;;;5029096;28;20047;-65
2022/08/09 00:20:24;;;;;;;6.78;4.97;;;13.80;99.90;;;;;;5050731;28;20170;-65
2022/08/09 00:22:49;;;;;;;7.55;4.97;;;13.80;99.90;;;;;;5047485;28;20073;-65
2022/08/09 00:25:15;;;;;;;7.50;5.13;;;13.70;99.90;;;;;;5048617;28;20529;-66
2022/08/09 00:27:41;;;;;;;7.78;5.40;;;13.70;99.90;;;;;;5032518;28;20033;-65
2022/08/09 00:30:07;;;;;;;6.80;4.97;;;13.70;99.90;;;;;;5032480;28;20056;-65
2022/08/09 00:32:33;;;;;;;6.90;5.18;;;13.70;99.90;;;;;;5046935;28;20037;-65
2022/08/09 00:34:59;;;;;;;5.97;4.57;;;13.70;99.90;;;;;;5049994;28;20037;-65
2022/08/09 00:37:25;;;;;;;6.88;4.55;;;13.70;99.90;;;;;;5050140;28;20450;-65
2022/08/09 00:39:51;;;;;;;6.90;4.97;;;13.70;99.90;;;;;;5040870;28;20480;-65
2022/08/09 00:42:17;;;;;;;7.70;5.13;;;13.60;99.90;;;;;;5049864;28;20037;-65
2022/08/09 00:44:43;;;;;;;8.18;5.15;;;13.60;99.90;;;;;;5050092;28;20074;-65
2022/08/09 00:47:09;;;;;;;9.60;5.90;;;13.60;99.90;;;;;;5051305;28;20131;-65
2022/08/09 00:49:35;;;;;;;8.88;6.03;;;13.60;99.90;;;;;;5049950;28;20518;-65
2022/08/09 00:52:00;;;;;;;8.05;5.60;;;13.60;99.90;;;;;;5049137;28;20410;-65
2022/08/09 00:54:27;;;;;;;10.15;5.22;;;13.50;99.90;;;;;;5050098;28;20116;-65
2022/08/09 00:56:52;;;;;;;6.53;5.35;;;13.50;99.90;;;;;;5047820;28;20434;-66
2022/08/09 00:59:18;;;;;;;15.35;6.55;;;13.50;99.90;;;;;;5049275;28;20029;-65
2022/08/09 01:01:47;;;;;;;10.80;5.72;;;13.50;99.90;;;;;;5049651;28;20036;-65
2022/08/09 01:04:39;;;;;;;9.77;6.43;;;13.50;99.90;;;;;;5045546;28;20037;-65
2022/08/09 01:07:16;;;;;;;9.30;5.90;;;13.60;99.90;;;;;;5049014;28;20550;-65
2022/08/09 01:09:52;;;;;;;10.73;6.13;;;13.60;99.90;;;;;;5049718;28;20399;-65
2022/08/09 01:12:39;;;;;;;10.55;5.97;;;13.60;99.90;;;;;;5049837;28;20051;-65
2022/08/09 01:15:08;;;;;;;10.40;5.70;;;13.60;99.90;;;;;;5047651;28;20033;-65
2022/08/09 01:17:42;;;;;;;9.30;6.05;;;13.60;99.90;;;;;;5049601;28;20041;-65
2022/08/09 01:20:27;;;;;;;27.65;5.43;;;13.50;99.90;;;;;;5048516;28;20495;-65
2022/08/09 01:23:02;;;;;;;140.93;9.60;;;13.50;99.90;;;;;;5052420;28;20040;-65
2022/08/09 01:25:45;;;;;;;6.15;3.90;;;13.50;99.90;;;;;;5051747;28;20387;-65
2022/08/09 01:28:12;;;;;;;5.70;4.03;;;13.40;99.90;;;;;;5049876;28;20033;-65
2022/08/09 01:30:39;;;;;;;6.00;4.00;;;13.30;99.90;;;;;;5050696;28;20050;-66
2022/08/09 01:33:07;;;;;;;4.97;3.78;;;13.20;99.90;;;;;;5050786;28;20064;-66
2022/08/09 01:35:52;;;;;;;7.18;4.40;;;13.10;99.90;;;;;;5052938;28;20443;-65
2022/08/09 01:38:23;;;;;;;4.97;3.42;;;13.00;99.90;;;;;;5052235;28;20037;-65
2022/08/09 01:40:57;;;;;;;6.03;3.88;;;13.00;99.90;;;;;;5071669;28;20043;-65
2022/08/09 01:43:23;;;;;;;49.30;5.35;;;12.90;99.90;;;;;;5052920;28;20048;-65
2022/08/09 01:45:50;;;;;;;7.80;4.50;;;12.80;99.90;;;;;;5035501;28;20040;-65
2022/08/09 01:48:18;;;;;;;13.68;4.22;;;12.70;99.90;;;;;;5053665;28;20036;-65
2022/08/09 01:50:49;;;;;;;9.23;5.43;;;12.60;99.90;;;;;;5057983;28;20415;-66
2022/08/09 01:53:18;;;;;;;6.72;5.10;;;12.60;99.90;;;;;;5052978;28;20044;-65
2022/08/09 01:55:45;;;;;;;7.95;5.22;;;12.50;99.90;;;;;;5046925;28;20634;-65
2022/08/09 01:58:13;;;;;;;8.25;5.70;;;12.50;99.90;;;;;;5052508;28;20044;-65
2022/08/09 02:00:40;;;;;;;8.25;4.93;;;12.50;99.90;;;;;;5053239;28;20045;-65
2022/08/09 02:03:07;;;;;;;9.70;5.63;;;12.50;99.90;;;;;;5052826;28;20123;-65
2022/08/09 02:05:34;;;;;;;7.93;5.20;;;12.50;99.90;;;;;;5044903;28;20095;-65
2022/08/09 02:08:05;;;;;;;9.05;5.40;;;12.50;99.90;;;;;;5052297;28;20052;-65
2022/08/09 02:10:36;;;;;;;8.07;4.88;;;12.60;99.90;;;;;;5052283;28;20392;-65
2022/08/09 02:13:04;;;;;;;10.18;6.78;;;12.60;99.90;;;;;;5050330;28;20539;-65
2022/08/09 02:15:33;;;;;;;11.85;6.95;;;12.60;99.90;;;;;;5047586;28;20041;-65
2022/08/09 02:18:00;;;;;;;8.18;5.50;;;12.70;99.90;;;;;;5052480;28;20472;-65
2022/08/09 02:20:28;;;;;;;8.90;5.43;;;12.70;99.90;;;;;;5053334;28;20100;-65
2022/08/09 02:23:09;;;;;;;9.52;6.20;;;12.60;99.90;;;;;;5055542;28;20041;-64
2022/08/09 02:25:38;;;;;;;8.10;5.32;;;12.70;99.90;;;;;;5052614;28;20631;-65
2022/08/09 02:28:13;;;;;;;79.90;6.18;;;12.70;99.90;;;;;;5048909;28;20491;-64
2022/08/09 02:31:00;;;;;;;31.92;5.35;;;12.60;99.90;;;;;;5050441;28;20052;-65
2022/08/09 02:33:29;;;;;;;6.72;4.00;;;12.50;99.90;;;;;;5071889;28;20071;-65
2022/08/09 02:35:58;;;;;;;5.72;4.32;;;12.40;99.90;;;;;;5072444;28;20124;-65
2022/08/09 02:38:31;;;;;;;4.15;2.95;;;12.40;99.90;;;;;;5067075;28;20111;-65
2022/08/09 02:41:07;;;;;;;7.40;4.43;;;12.40;99.90;;;;;;5050899;28;20037;-65
2022/08/09 02:43:34;;;;;;;11.00;6.68;;;12.40;99.90;;;;;;5051929;28;20041;-65
2022/08/09 02:46:03;;;;;;;8.93;5.93;;;12.50;99.90;;;;;;5054041;28;20037;-65
2022/08/09 02:48:30;;;;;;;8.10;5.93;;;12.50;99.90;;;;;;5053692;28;20029;-65
2022/08/09 02:50:59;;;;;;;9.50;6.40;;;12.50;99.90;;;;;;5051235;28;20068;-65
2022/08/09 02:53:28;;;;;;;12.55;5.85;;;12.40;99.90;;;;;;5051345;28;20041;-64
2022/08/09 02:55:57;;;;;;;13.13;4.38;;;12.50;99.90;;;;;;5056356;28;20376;-65
2022/08/09 02:58:28;;;;;;;20.48;3.45;;;12.40;99.90;;;;;;5051138;28;20043;-65
2022/08/09 03:00:55;;;;;;;7.35;3.80;;;12.30;99.90;;;;;;5051256;28;20426;-65
2022/08/09 03:03:22;;;;;;;4.57;2.80;;;12.30;99.90;;;;;;5054075;28;20380;-65
2022/08/09 03:05:50;;;;;;;7.22;4.10;;;12.30;99.90;;;;;;5047105;28;20487;-66
2022/08/09 03:08:17;;;;;;;8.73;5.53;;;12.30;99.90;;;;;;5051491;28;20075;-66
2022/08/09 03:10:44;;;;;;;228.73;8.65;;;12.30;99.90;;;;;;5031844;28;21098;-65
2022/08/09 03:13:12;;;;;;;51.13;4.45;;;12.20;99.90;;;;;;5059889;28;20036;-65
2022/08/09 03:15:38;;;;;;;9.60;4.32;;;12.20;99.90;;;;;;5051253;28;20086;-65
2022/08/09 03:18:05;;;;;;;8.18;4.45;;;12.10;99.90;;;;;;5049930;28;20051;-65
2022/08/09 03:20:31;;;;;;;7.15;3.58;;;12.10;99.90;;;;;;5056959;28;20060;-65
2022/08/09 03:22:58;;;;;;;10.95;3.50;;;12.00;99.90;;;;;;5049966;28;20102;-65
2022/08/09 03:25:24;;;;;;;10.77;5.25;;;12.00;99.90;;;;;;5051782;28;20048;-65
2022/08/09 03:27:51;;;;;;;29.05;5.00;;;11.90;99.90;;;;;;5048906;28;20116;-65
2022/08/09 03:30:17;;;;;;;87.65;5.53;;;11.90;99.90;;;;;;5043040;28;20075;-65
2022/08/09 03:32:43;;;;;;;131.43;6.50;;;11.90;99.90;;;;;;5050380;28;20506;-65
2022/08/09 03:35:10;;;;;;;9.07;5.47;;;11.90;99.90;;;;;;5050107;28;20107;-66
2022/08/09 03:37:36;;;;;;;8.80;5.53;;;11.80;99.90;;;;;;5051766;28;20075;-65
2022/08/09 03:40:03;;;;;;;10.75;5.80;;;11.90;99.90;;;;;;5050526;28;20064;-65
2022/08/09 03:42:28;;;;;;;32.25;5.28;;;11.90;99.90;;;;;;5050143;28;20036;-65
2022/08/09 03:44:54;;;;;;;12.55;4.90;;;11.90;99.90;;;;;;5055524;28;20403;-65
2022/08/09 03:47:19;;;;;;;9.07;5.00;;;11.90;99.90;;;;;;5042066;28;20033;-65
2022/08/09 03:49:46;;;;;;;8.13;4.88;;;11.90;99.90;;;;;;5044305;28;20037;-66
2022/08/09 03:52:15;;;;;;;9.27;5.43;;;11.90;99.90;;;;;;5043430;28;20044;-65
2022/08/09 03:54:43;;;;;;;14.20;5.43;;;11.90;99.90;;;;;;5045720;28;20041;-65
2022/08/09 03:57:11;;;;;;;13.48;5.90;;;12.00;99.90;;;;;;5050069;28;20032;-65
2022/08/09 03:59:37;;;;;;;11.70;6.15;;;12.00;99.90;;;;;;5050340;28;20040;-65
2022/08/09 04:02:04;;;;;;;13.98;6.07;;;12.10;99.90;;;;;;5047466;28;20076;-65
2022/08/09 04:04:31;;;;;;;11.50;5.75;;;12.10;99.90;;;;;;5050081;28;20107;-65
2022/08/09 04:06:57;;;;;;;26.08;5.60;;;12.00;99.90;;;;;;5050082;28;20466;-65
2022/08/09 04:09:26;;;;;;;48.30;5.95;;;12.00;99.90;;;;;;5047593;28;20121;-65
2022/08/09 04:12:14;;;;;;;34.95;5.38;;;11.90;99.90;;;;;;5056537;28;20573;-65
2022/08/09 04:14:40;;;;;;;46.28;5.18;;;11.90;99.90;;;;;;5050406;28;20071;-65
2022/08/09 04:17:07;;;;;;;15.68;5.15;;;11.90;99.90;;;;;;5050259;28;20056;-65
2022/08/09 04:19:33;;;;;;;39.63;4.93;;;12.00;99.90;;;;;;5045616;28;20114;-65
2022/08/09 04:21:59;;;;;;;32.47;5.75;;;12.00;99.90;;;;;;5041828;28;20111;-65
2022/08/09 04:24:24;;;;;;;87.70;6.57;;;12.10;99.90;;;;;;5050279;28;20041;-65
2022/08/09 04:26:51;;;;;;;15.20;5.15;;;12.10;99.90;;;;;;5047224;28;20047;-66
2022/08/09 04:29:17;;;;;;;11.75;5.60;;;12.20;99.90;;;;;;5049646;28;20499;-66
2022/08/09 04:31:42;;;;;;;7.20;4.53;;;12.30;99.90;;;;;;5049945;28;20041;-66
2022/08/09 04:34:08;;;;;;;9.85;5.28;;;12.30;99.90;;;;;;5042356;28;20464;-65
2022/08/09 04:36:34;;;;;;;12.07;5.55;;;12.40;99.90;;;;;;5038381;28;20091;-65
2022/08/09 04:39:02;;;;;;;14.98;5.60;;;12.30;99.90;;;;;;5050198;28;20039;-65
2022/08/09 04:41:29;;;;;;;46.45;6.00;;;12.30;99.90;;;;;;5047587;28;20121;-65
2022/08/09 04:43:55;;;;;;;12.20;5.82;;;12.40;99.90;;;;;;5044622;28;20041;-66
2022/08/09 04:46:21;;;;;;;10.60;5.65;;;12.40;99.90;;;;;;5065058;28;20080;-67
2022/08/09 04:48:46;;;;;;;12.73;5.85;;;12.40;99.90;;;;;;5045013;28;20072;-65
2022/08/09 04:51:12;;;;;;;13.07;6.55;;;12.50;99.90;;;;;;5043344;28;20048;-65
2022/08/09 04:53:38;;;;;;;14.23;6.35;;;12.60;99.90;;;;;;5045964;28;20025;-65
2022/08/09 04:56:05;;;;;;;16.02;6.03;;;12.60;99.90;;;;;;5051628;28;20094;-65
2022/08/09 04:58:31;;;;;;;11.68;6.05;;;12.70;99.90;;;;;;5046066;28;20044;-65
2022/08/09 05:00:57;;;;;;;16.90;6.95;;;12.70;99.90;;;;;;5045755;28;20128;-65
2022/08/09 05:03:24;;;;;;;11.70;6.32;;;12.80;99.90;;;;;;5049191;28;20373;-65
2022/08/09 05:05:49;;;;;;;15.43;7.10;;;12.90;99.90;;;;;;5050616;28;20048;-66
2022/08/09 05:08:15;;;;;;;12.82;6.72;;;12.90;99.90;;;;;;5050329;28;20045;-66
2022/08/09 05:10:41;;;;;;;15.80;6.95;;;13.00;99.90;;;;;;5052719;28;20396;-66
2022/08/09 05:13:07;;;;;;;14.70;7.00;;;13.10;99.90;;;;;;5050146;28;20037;-65
2022/08/09 05:15:33;;;;;;;13.70;6.35;;;13.10;99.90;;;;;;5055910;28;20047;-65
2022/08/09 05:17:58;;;;;;;16.30;7.38;;;13.20;99.90;;;;;;5053850;28;20090;-65
2022/08/09 05:20:24;;;;;;;12.50;6.15;;;13.30;99.90;;;;;;5054032;28;20040;-65
2022/08/09 05:22:52;;;;;;;13.30;6.90;;;13.40;99.90;;;;;;5053402;28;20071;-65
2022/08/09 05:25:19;;;;;;;14.95;6.75;;;13.40;99.90;;;;;;5051401;28;20033;-65
2022/08/09 05:27:45;;;;;;;16.80;7.28;;;13.50;99.90;;;;;;5055818;28;20029;-65
2022/08/09 05:30:11;;;;;;;15.05;6.95;;;13.60;99.90;;;;;;5052872;28;20178;-66
2022/08/09 05:32:37;;;;;;;20.45;7.65;;;13.70;99.90;;;;;;5053172;28;20032;-66
2022/08/09 05:35:04;;;;;;;14.25;7.38;;;13.80;99.90;;;;;;5050227;28;20040;-66
2022/08/09 05:37:29;;;;;;;15.27;7.28;;;13.90;99.90;;;;;;5050472;28;20515;-65
2022/08/09 05:39:57;;;;;;;16.95;6.97;;;13.90;99.90;;;;;;5050541;28;20041;-66
2022/08/09 05:42:23;;;;;;;13.13;6.95;;;14.00;99.90;;;;;;5050493;28;20033;-66
2022/08/09 05:44:50;;;;;;;14.27;7.03;;;14.10;99.90;;;;;;5049752;28;20571;-66
2022/08/09 05:47:15;;;;;;;19.33;8.27;;;14.20;99.90;;;;;;5050198;28;20044;-65
2022/08/09 05:49:41;;;;;;;15.27;7.38;;;14.30;99.90;;;;;;5049402;28;20033;-66
2022/08/09 05:52:07;;;;;;;13.73;6.60;;;14.40;99.90;;;;;;5049641;28;20457;-66
2022/08/09 05:54:32;;;;;;;13.23;7.20;;;14.40;99.90;;;;;;5049912;28;20039;-67
2022/08/09 05:56:58;;;;;;;15.98;7.10;;;14.50;99.90;;;;;;5050676;28;20163;-67
2022/08/09 05:59:24;;;;;;;15.82;6.95;;;14.60;99.90;;;;;;5052404;28;20101;-66
2022/08/09 06:01:49;;;;;;;13.63;7.30;;;14.70;99.90;;;;;;5051279;28;20037;-67
2022/08/09 06:04:15;;;;;;;17.92;7.88;;;14.80;99.90;;;;;;5049702;28;20380;-66
2022/08/09 06:06:40;;;;;;;13.80;7.15;;;14.90;99.90;;;;;;5046367;28;20044;-70
2022/08/09 06:09:06;;;;;;;15.68;7.50;;;14.90;99.90;;;;;;5032006;28;20045;-70
2022/08/09 06:11:32;;;;;;;13.65;6.97;;;15.00;99.90;;;;;;5049718;28;20388;-72
2022/08/09 06:13:58;;;;;;;13.85;7.28;;;15.20;99.90;;;;;;5053451;28;20044;-66
2022/08/09 06:16:24;;;;;;;15.73;7.45;;;15.30;99.90;;;;;;5031368;28;20495;-67
2022/08/09 06:18:49;;;;;;;15.95;7.28;;;15.30;99.90;;;;;;5050800;28;20033;-65
2022/08/09 06:21:15;;;;;;;12.43;7.13;;;15.40;99.90;;;;;;5036377;28;20040;-67
2022/08/09 06:23:41;;;;;;;13.05;7.07;;;15.50;99.90;;;;;;5054813;28;20068;-66
2022/08/09 06:26:06;;;;;;;10.95;6.72;;;15.60;99.90;;;;;;5042347;28;20394;-67
2022/08/09 06:28:32;;;;;;;10.95;6.88;;;15.70;99.90;;;;;;5048922;28;20428;-67
2022/08/09 06:30:58;;;;;;;11.90;6.53;;;15.80;99.90;;;;;;5050453;28;20721;-66
2022/08/09 06:33:24;;;;;;;14.98;7.15;;;15.80;99.90;;;;;;5049746;28;20025;-67
2022/08/09 06:35:49;;;;;;;12.82;7.13;;;15.90;99.90;;;;;;5052041;28;20264;-65
2022/08/09 06:38:15;;;;;;;13.27;6.65;;;16.00;99.90;;;;;;5049332;28;20592;-67
2022/08/09 06:40:41;;;;;;;12.60;6.43;;;16.00;99.90;;;;;;5055704;28;20035;-67
2022/08/09 06:43:07;;;;;;;13.30;6.78;;;16.10;99.90;;;;;;5052888;28;20045;-66
2022/08/09 06:45:33;;;;;;;11.60;6.55;;;16.30;99.90;;;;;;5052219;28;20048;-67
2022/08/09 06:47:58;;;;;;;14.10;5.85;;;16.40;99.90;;;;;;5060993;28;20037;-67
2022/08/09 06:50:24;;;;;;;10.70;6.10;;;16.50;99.90;;;;;;5051320;28;20033;-66
2022/08/09 06:52:50;;;;;;;9.70;6.03;;;16.50;99.90;;;;;;5051564;28;20064;-67
2022/08/09 06:55:18;;;;;;;9.80;5.35;;;16.60;99.90;;;;;;5047830;28;20044;-67
2022/08/09 06:57:43;;;;;;;13.48;6.07;;;16.60;99.90;;;;;;5050785;28;20083;-67
2022/08/09 07:00:10;;;;;;;9.07;6.22;;;16.70;99.90;;;;;;5051779;28;20041;-67
2022/08/09 07:02:36;;;;;;;10.35;5.28;;;16.80;99.90;;;;;;5049106;28;20044;-67
2022/08/09 07:05:02;;;;;;;10.48;6.20;;;16.90;99.90;;;;;;5051184;28;20595;-67
2022/08/09 07:07:28;;;;;;;9.35;5.65;;;16.90;99.90;;;;;;5051711;28;20076;-67
2022/08/09 07:09:54;;;;;;;9.70;4.72;;;17.00;99.90;;;;;;5042473;28;20065;-67
2022/08/09 07:12:20;;;;;;;9.82;5.20;;;17.10;99.90;;;;;;5048537;28;20036;-66
2022/08/09 07:14:47;;;;;;;9.07;4.90;;;17.20;99.90;;;;;;5057636;28;20043;-68
2022/08/09 07:17:13;;;;;;;8.63;4.05;;;17.20;99.90;;;;;;5051154;28;20036;-68
2022/08/09 07:19:39;;;;;;;7.68;4.63;;;17.30;99.90;;;;;;5048681;28;20096;-67
2022/08/09 07:22:06;;;;;;;6.40;3.80;;;17.40;99.90;;;;;;5042669;28;20078;-67
2022/08/09 07:24:32;;;;;;;7.03;4.22;;;17.40;99.90;;;;;;5051146;28;20043;-67
2022/08/09 07:26:58;;;;;;;7.82;3.75;;;17.50;99.90;;;;;;5051842;28;20140;-67
2022/08/09 07:29:25;;;;;;;6.65;3.75;;;17.50;99.90;;;;;;5032699;28;20079;-68
2022/08/09 07:31:51;;;;;;;7.93;3.90;;;17.60;99.90;;;;;;5060329;28;20044;-67
2022/08/09 07:34:17;;;;;;;7.68;4.40;;;17.60;99.90;;;;;;5065096;28;20040;-68
2022/08/09 07:36:43;;;;;;;7.80;3.90;;;17.70;99.90;;;;;;5055829;28;20028;-68
2022/08/09 07:39:08;;;;;;;4.82;3.63;;;17.80;99.90;;;;;;5050590;28;20111;-67
2022/08/09 07:41:34;;;;;;;7.78;4.50;;;17.80;99.90;;;;;;5054684;28;20506;-68
2022/08/09 07:44:00;;;;;;;8.00;3.92;;;17.90;99.90;;;;;;5055928;28;20064;-66
2022/08/09 07:46:26;;;;;;;7.47;4.13;;;18.00;99.90;;;;;;5045919;28;20556;-67
2022/08/09 07:48:52;;;;;;;6.05;3.90;;;18.10;99.90;;;;;;5050221;28;20167;-67
2022/08/09 07:51:17;;;;;;;5.63;3.90;;;18.10;99.90;;;;;;5050023;28;20131;-68
2022/08/09 07:53:43;;;;;;;7.63;3.70;;;18.10;99.90;;;;;;5047737;28;20041;-68
2022/08/09 07:56:09;;;;;;;5.15;3.20;;;18.20;99.90;;;;;;5049951;28;20037;-68
2022/08/09 07:58:35;;;;;;;4.45;2.97;;;18.30;99.90;;;;;;5048306;28;20062;-67
2022/08/09 08:01:00;;;;;;;8.27;3.60;;;18.40;99.90;;;;;;5049662;28;20048;-68
2022/08/09 08:03:26;;;;;;;6.90;3.75;;;18.40;99.90;;;;;;5053482;28;20123;-67
2022/08/09 08:05:52;;;;;;;6.78;3.63;;;18.40;99.90;;;;;;5049952;28;20085;-68
2022/08/09 08:08:18;;;;;;;6.70;3.63;;;18.50;99.90;;;;;;5046803;28;20395;-69
2022/08/09 08:10:43;;;;;;;14.13;3.15;;;18.60;99.90;;;;;;5044528;28;20112;-68
2022/08/09 08:13:09;;;;;;;7.90;3.53;;;18.60;99.90;;;;;;5046757;28;21050;-69
2022/08/09 08:15:35;;;;;;;6.03;3.47;;;18.60;99.90;;;;;;5045786;28;20029;-68
2022/08/09 08:18:00;;;;;;;6.95;3.10;;;18.70;99.90;;;;;;5050111;28;20144;-66
2022/08/09 08:20:28;;;;;;;9.30;3.47;;;18.70;99.90;;;;;;5040990;28;20422;-69
2022/08/09 08:22:53;;;;;;;7.22;3.20;;;18.80;99.90;;;;;;5039749;28;20036;-68
2022/08/09 08:25:19;;;;;;;5.45;2.95;;;18.90;99.90;;;;;;5045663;28;20040;-67
2022/08/09 08:27:45;;;;;;;6.93;3.20;;;18.90;99.90;;;;;;5023845;28;20037;-67
2022/08/09 08:30:12;;;;;;;4.78;3.00;;;19.00;99.90;;;;;;5041688;28;20128;-68
2022/08/09 08:32:39;;;;;;;3.67;2.30;;;19.00;99.90;;;;;;5024052;28;20415;-68
2022/08/09 08:35:05;;;;;;;5.38;2.25;;;19.10;99.90;;;;;;5046708;28;20048;-67
2022/08/09 08:37:31;;;;;;;3.47;1.80;;;19.10;99.90;;;;;;5048707;28;20123;-66
2022/08/09 08:39:57;;;;;;;3.97;2.30;;;19.10;99.90;;;;;;5051996;28;20120;-66
2022/08/09 08:42:23;;;;;;;4.97;2.45;;;19.20;99.90;;;;;;5047975;28;20136;-67
2022/08/09 08:44:56;;;;;;;4.38;2.42;;;19.30;99.90;;;;;;5041703;28;20595;-65
2022/08/09 08:47:23;;;;;;;2.75;2.00;;;19.40;99.90;;;;;;5057742;28;20029;-68
2022/08/09 08:49:49;;;;;;;3.72;2.30;;;19.40;99.90;;;;;;5053970;28;20044;-68
2022/08/09 08:52:26;;;;;;;3.17;1.95;;;19.50;99.90;;;;;;5047158;28;20553;-68
2022/08/09 08:54:57;;;;;;;4.00;1.90;;;19.50;99.90;;;;;;5066364;28;20032;-67
2022/08/09 08:57:24;;;;;;;6.75;2.10;;;19.40;99.90;;;;;;5053945;28;20479;-68
2022/08/09 08:59:51;;;;;;;2.30;1.83;;;19.40;99.90;;;;;;5049264;28;20064;-65
2022/08/09 09:02:22;;;;;;;3.60;1.95;;;19.60;99.90;;;;;;5052374;28;20055;-68
2022/08/09 09:04:50;;;;;;;3.50;2.25;;;19.60;99.90;;;;;;5062544;28;20652;-68
2022/08/09 09:07:17;;;;;;;5.05;2.92;;;19.70;99.90;;;;;;5049985;28;20152;-68
2022/08/09 09:09:48;;;;;;;5.43;2.25;;;19.90;99.90;;;;;;5049530;28;20048;-68
2022/08/09 09:12:19;;;;;;;5.80;2.42;;;19.90;99.90;;;;;;5057710;28;20037;-68
2022/08/09 09:14:45;;;;;;;;;;;20.10;99.90;;;;;;5045617;28;20037;-67
2022/08/09 09:17:12;;;;;;;5.60;2.25;;;20.20;99.90;;;;;;5051648;28;19917;-67
2022/08/09 09:19:38;;;;;;;6.95;2.40;;;20.30;99.90;;;;;;5049482;28;20033;-67
2022/08/09 09:22:15;;;;;;;6.28;2.40;;;20.40;99.90;;;;;;5052488;28;20036;-68
2022/08/09 09:24:51;;;;;;;3.10;1.90;;;20.50;99.90;;;;;;5049090;28;20047;-66
2022/08/09 09:27:24;;;;;;;4.38;1.90;;;20.60;99.90;;;;;;5058633;28;20037;-67
2022/08/09 09:29:50;;;;;;;3.40;1.80;;;20.70;99.90;;;;;;5056008;28;20037;-67
2022/08/09 09:32:25;;;;;;;2.00;1.80;;;20.80;99.90;;;;;;5052816;28;20048;-68
2022/08/09 09:35:08;;;;;;;4.18;1.90;;;20.90;99.90;;;;;;5053743;28;20115;-68
2022/08/09 09:37:34;;;;;;;3.47;1.98;;;20.90;99.90;;;;;;5046509;28;20033;-68
2022/08/09 09:40:00;;;;;;;4.20;2.20;;;21.00;99.90;;;;;;5053385;28;20033;-67
2022/08/09 09:42:28;;;;;;;2.50;1.52;;;21.20;99.90;;;;;;5047858;28;20035;-67
2022/08/09 09:45:14;;;;;;;2.70;1.80;;;21.30;99.90;;;;;;5056400;28;20040;-67
2022/08/09 09:47:45;;;;;;;3.42;2.05;;;21.30;99.90;;;;;;5043215;28;20053;-67
2022/08/09 09:50:11;;;;;;;3.35;2.10;;;21.30;99.90;;;;;;5025497;28;20533;-67
2022/08/09 09:52:51;;;;;;;2.50;2.00;;;21.30;99.90;;;;;;5054846;28;20081;-67
2022/08/09 09:55:17;;;;;;;4.30;1.92;;;21.20;99.90;;;;;;5057322;28;20368;-67
2022/08/09 09:58:03;;;;;;;4.85;1.88;;;21.40;99.90;;;;;;5049844;28;20645;-67
2022/08/09 10:00:32;;;;;;;2.75;1.67;;;21.40;99.90;;;;;;5049314;28;20037;-67
2022/08/09 10:02:58;;;;;;;4.00;1.95;;;21.50;99.90;;;;;;5057998;28;20040;-66
2022/08/09 10:05:25;;;;;;;1.98;1.58;;;21.40;99.90;;;;;;5052582;28;20090;-67
2022/08/09 10:08:02;;;;;;;3.97;1.55;;;21.50;99.90;;;;;;5050616;28;20060;-66
2022/08/09 10:10:29;;;;;;;2.80;1.50;;;21.70;99.90;;;;;;5061342;28;20035;-66
2022/08/09 10:12:54;;;;;;;2.92;1.50;;;21.80;99.90;;;;;;5051938;28;20484;-66
2022/08/09 10:15:20;;;;;;;3.20;1.60;;;21.90;99.90;;;;;;5052541;28;20044;-66
2022/08/09 10:17:49;;;;;;;2.65;1.92;;;22.00;99.90;;;;;;5049509;28;20033;-66
2022/08/09 10:20:18;;;;;;;7.05;1.80;;;22.20;99.90;;;;;;5050929;28;20041;-67
2022/08/09 10:22:45;;;;;;;2.22;1.50;;;22.20;99.90;;;;;;5052007;28;20033;-65
2022/08/09 10:25:11;;;;;;;5.13;2.67;;;22.50;99.90;;;;;;5045587;28;20059;-67
2022/08/09 10:27:37;;;;;;;2.30;1.58;;;22.40;99.90;;;;;;5043357;28;20107;-66
2022/08/09 10:30:05;;;;;;;3.55;2.05;;;22.50;99.90;;;;;;5052176;28;20040;-66
2022/08/09 10:32:32;;;;;;;2.53;1.60;;;22.60;99.90;;;;;;5032352;28;20140;-66
2022/08/09 10:34:59;;;;;;;1.83;1.60;;;22.60;99.90;;;;;;5059687;28;20039;-67
2022/08/09 10:37:25;;;;;;;3.70;1.80;;;22.70;99.90;;;;;;5051897;28;20036;-66
2022/08/09 10:39:52;;;;;;;2.38;1.38;;;22.70;99.90;;;;;;5052339;28;20041;-64
2022/08/09 10:42:18;;;;;;;2.30;1.40;;;22.80;99.90;;;;;;5044296;28;20068;-66
2022/08/09 10:44:47;;;;;;;1.63;1.50;;;22.80;99.90;;;;;;5051868;28;20041;-65
2022/08/09 10:47:27;;;;;;;2.83;1.90;;;23.00;99.90;;;;;;5047589;28;20052;-64
2022/08/09 10:50:23;;;;;;;2.15;1.63;;;23.10;98.30;;;;;;5050041;28;20063;-64
2022/08/09 10:53:06;;;;;;;2.20;1.58;;;23.10;99.90;;;;;;5054431;28;20064;-64
2022/08/09 10:55:33;;;;;;;2.78;1.75;;;23.20;98.60;;;;;;5047183;28;20735;-66
2022/08/09 10:57:59;;;;;;;2.08;1.60;;;23.20;99.90;;;;;;5058552;28;20042;-66
2022/08/09 11:00:27;;;;;;;2.17;1.40;;;23.30;99.90;;;;;;5039632;28;20025;-66
2022/08/09 11:02:55;;;;;;;2.83;1.65;;;23.30;99.90;;;;;;5039643;28;20041;-64
2022/08/09 11:05:21;;;;;;;2.30;1.40;;;23.40;99.90;;;;;;5033232;28;20572;-66
2022/08/09 11:07:48;;;;;;;3.47;1.58;;;23.40;99.10;;;;;;5047309;28;20039;-66
2022/08/09 11:10:35;;;;;;;2.25;1.40;;;23.50;98.90;;;;;;5050136;28;20493;-64
2022/08/09 11:13:18;;;;;;;3.03;1.50;;;23.60;99.90;;;;;;5036525;28;20060;-66
2022/08/09 11:15:44;;;;;;;2.65;1.77;;;23.70;97.90;;;;;;5055744;28;20060;-65
2022/08/09 11:18:30;;;;;;;2.55;1.90;;;23.70;99.60;;;;;;5052583;28;20045;-65
2022/08/09 11:20:55;;;;;;;5.13;1.80;;;23.80;99.90;;;;;;5050563;28;20052;-67
2022/08/09 11:23:22;;;;;;;3.00;1.73;;;23.90;99.90;;;;;;5051630;28;20040;-67
2022/08/09 11:25:48;;;;;;;5.47;1.80;;;23.80;99.90;;;;;;5056195;28;20088;-65
2022/08/09 11:28:34;;;;;;;2.15;1.40;;;23.90;99.90;;;;;;5040771;28;20036;-65
2022/08/09 11:31:02;;;;;;;1.50;1.40;;;23.90;97.50;;;;;;5050737;28;20045;-67
2022/08/09 11:33:47;;;;;;;2.13;1.60;;;24.10;99.90;;;;;;5050965;28;20570;-67
2022/08/09 11:36:14;;;;;;;2.05;1.77;;;24.10;97.30;;;;;;5051384;28;20029;-67
2022/08/09 11:38:40;;;;;;;2.35;1.73;;;24.10;99.30;;;;;;5045552;28;20038;-68
2022/08/09 11:41:12;;;;;;;1.58;1.38;;;24.30;98.80;;;;;;5047733;28;20144;-66
2022/08/09 11:43:47;;;;;;;2.65;1.40;;;24.30;97.20;;;;;;5041831;28;20037;-67
2022/08/09 11:46:13;;;;;;;4.15;1.65;;;24.40;99.20;;;;;;5042962;28;20037;-67
2022/08/09 11:48:51;;;;;;;3.40;1.60;;;24.40;98.20;;;;;;5042781;28;20447;-67
2022/08/09 11:51:18;;;;;;;1.40;1.30;;;24.50;97.00;;;;;;5043291;28;20037;-68
2022/08/09 11:53:43;;;;;;;3.60;1.30;;;24.70;99.10;;;;;;5050424;28;20036;-68
2022/08/09 11:56:15;;;;;;;5.85;1.75;;;24.60;97.30;;;;;;5049776;28;20037;-68
2022/08/09 11:58:43;;;;;;;8.18;2.00;;;24.80;93.70;;;;;;5030722;28;20033;-67
2022/08/09 12:01:11;;;;;;;5.18;1.63;;;24.80;97.80;;;;;;5040020;28;20048;-68
2022/08/09 12:03:38;;;;;;;1.98;1.60;;;24.80;97.30;;;;;;5046996;28;20047;-67
2022/08/09 12:06:11;;;;;;;1.83;1.60;;;24.90;95.60;;;;;;5049874;28;20459;-67
2022/08/09 12:08:45;;;;;;;1.73;1.60;;;24.90;95.80;;;;;;5039047;28;20044;-67
2022/08/09 12:11:12;;;;;;;1.83;1.50;;;25.00;93.40;;;;;;5041195;28;20103;-68
2022/08/09 12:13:41;;;;;;;2.83;1.40;;;25.00;95.50;;;;;;5047794;28;20552;-67
2022/08/09 12:16:19;;;;;;;1.77;1.63;;;25.20;95.90;;;;;;5048945;28;20049;-67
2022/08/09 12:18:47;;;;;;;1.30;1.20;;;25.40;92.10;;;;;;5064429;28;20558;-66
2022/08/09 12:21:23;;;;;;;1.58;1.48;;;25.30;95.40;;;;;;5069509;28;20045;-67
2022/08/09 12:23:49;;;;;;;2.17;1.50;;;25.30;94.80;;;;;;5057349;28;20049;-67
2022/08/09 12:26:15;;;;;;;2.50;1.40;;;25.30;95.80;;;;;;5050438;28;20036;-68
2022/08/09 12:28:48;;;;;;;1.60;1.50;;;25.30;95.90;;;;;;5050410;28;20078;-67
2022/08/09 12:31:25;;;;;;;1.73;1.30;;;25.50;90.90;;;;;;5052249;28;20049;-66
2022/08/09 12:33:53;;;;;;;2.00;1.40;;;25.60;93.20;;;;;;5059209;28;20511;-67
2022/08/09 12:36:19;;;;;;;2.13;1.70;;;25.70;94.30;;;;;;5050185;28;20029;-67
2022/08/09 12:38:45;;;;;;;1.90;1.40;;;25.80;94.60;;;;;;5048705;28;20045;-65
2022/08/09 12:41:11;;;;;;;1.50;1.40;;;25.80;94.50;;;;;;5048561;28;20102;-67
2022/08/09 12:43:38;;;;;;;2.20;1.60;;;26.00;94.10;;;;;;5049229;28;20037;-67
2022/08/09 12:46:04;;;;;;;2.08;1.52;;;26.00;94.10;;;;;;5048665;28;20041;-66
2022/08/09 12:48:31;;;;;;;1.83;1.35;;;26.00;94.20;;;;;;5060288;28;20479;-63